»·PEaware :: AAL1524 KPDX-KRNO

AAL1524 :: KPDX-KRNO

FLIGHT INFORMATION

Flight Status: Arrived
Operator:
American Airlines
More flights by this operator :: More flights under this callsign
Pilot: Matteo S. (9898)
Aircraft: AIRBUS A319
(A319)
More flights by this aircraft type
Origin: KPDX Portland Intl
United States
Destination: KRNO Reno/Tahoe Intl
United States
More flights between these airports :: More routes between these airports
Route: +FMG
File this flight plan on PilotEdge
Remarks:
Altitude:
(Current/Filed)
37,000ft
Speed:
(Current/Filed)
460kts
Departed: 27-Jul-18 03:15 PM
Arrived: 27-Jul-18 04:25 PM
Distance/Time
Traveled:
386nm/1:10
Distance/Time
To Go:
Arrived

Flight Plot

Page will automatically refresh every two minutes.

Flight plan parsing failed; only flown route is shown


Map Options




Map Legend


Flown Route
Filed Route
Departure Airport
Arrival Airport
Navaid (VOR, NDB)
Fix

Horizontal Profiles

Position Reports

Time Latitude Longitude Heading Altitude Ground
Speed
27-Jul-18 14:58 45.589790 -122.596577 210 44ft 0kts
27-Jul-18 14:59 45.589790 -122.596577 210 44ft 0kts
27-Jul-18 15:00 45.589790 -122.596577 210 44ft 0kts
27-Jul-18 15:01 45.589790 -122.596577 210 44ft 0kts
27-Jul-18 15:02 45.589790 -122.596577 210 44ft 0kts
27-Jul-18 15:03 45.589790 -122.596577 210 44ft 0kts
27-Jul-18 15:04 45.589790 -122.596577 210 44ft 0kts
27-Jul-18 15:05 45.589790 -122.596577 210 44ft 0kts
27-Jul-18 15:06 45.589790 -122.596577 210 44ft 0kts
27-Jul-18 15:07 45.590192 -122.595984 249 44ft 2kts
27-Jul-18 15:08 45.590100 -122.594855 298 44ft 2kts
27-Jul-18 15:09 45.590089 -122.594825 298 44ft 0kts
27-Jul-18 15:10 45.590108 -122.594909 287 44ft 4kts
27-Jul-18 15:11 45.591521 -122.599037 294 44ft 14kts
27-Jul-18 15:12 45.589157 -122.600620 116 44ft 14kts
27-Jul-18 15:13 45.587293 -122.595565 117 44ft 20kts
27-Jul-18 15:14 45.583632 -122.588517 118 44ft 21kts
27-Jul-18 15:15 45.581261 -122.583784 200 44ft 3kts
27-Jul-18 15:16 45.581849 -122.587340 299 44ft 54kts
27-Jul-18 15:17 45.601235 -122.635048 301 1910ft 172kts
27-Jul-18 15:18 45.633601 -122.712100 300 4939ft 260kts
27-Jul-18 15:19 45.668218 -122.807400 278 9700ft 281kts
27-Jul-18 15:20 45.639165 -122.907414 212 14206ft 296kts
27-Jul-18 15:21 45.548073 -122.888316 151 14950ft 373kts
27-Jul-18 15:22 45.472568 -122.783733 135 16200ft 383kts
27-Jul-18 15:23 45.398524 -122.669443 135 19387ft 402kts
27-Jul-18 15:24 45.321203 -122.549642 135 22106ft 418kts
27-Jul-18 15:25 45.241156 -122.425809 135 24306ft 433kts
27-Jul-18 15:26 45.158548 -122.298282 135 26131ft 444kts
27-Jul-18 15:27 45.071797 -122.171354 144 27615ft 450kts
27-Jul-18 15:28 44.962516 -122.086279 158 28898ft 452kts
27-Jul-18 15:29 44.847892 -122.009052 158 30044ft 458kts
27-Jul-18 15:30 44.731862 -121.931471 159 30982ft 466kts
27-Jul-18 15:31 44.613794 -121.853040 159 31868ft 471kts
27-Jul-18 15:32 44.495998 -121.775178 160 32998ft 467kts
27-Jul-18 15:33 44.378610 -121.697983 160 34037ft 465kts
27-Jul-18 15:34 44.261583 -121.621411 160 34999ft 462kts
27-Jul-18 15:35 44.145110 -121.545530 160 35825ft 462kts
27-Jul-18 15:36 44.028638 -121.469975 160 36613ft 462kts
27-Jul-18 15:37 43.912233 -121.394767 161 37093ft 460kts
27-Jul-18 15:38 43.796154 -121.320136 161 37100ft 460kts
27-Jul-18 15:39 43.680157 -121.245873 161 37103ft 460kts
27-Jul-18 15:40 43.564029 -121.171856 161 37103ft 460kts
27-Jul-18 15:41 43.447728 -121.098035 161 37122ft 460kts
27-Jul-18 15:42 43.331601 -121.024646 161 37132ft 459kts
27-Jul-18 15:43 43.215457 -120.951542 161 37141ft 459kts
27-Jul-18 15:44 43.099141 -120.879330 162 37149ft 459kts
27-Jul-18 15:45 42.982977 -120.807494 162 37157ft 458kts
27-Jul-18 15:46 42.866670 -120.735647 162 37165ft 458kts
27-Jul-18 15:47 42.750753 -120.664199 162 37172ft 459kts
27-Jul-18 15:48 42.634146 -120.592514 162 37179ft 459kts
27-Jul-18 15:49 42.517898 -120.521310 162 37185ft 458kts
27-Jul-18 15:50 42.397726 -120.476763 174 37182ft 446kts
27-Jul-18 15:51 42.276295 -120.441107 174 37186ft 446kts
27-Jul-18 15:52 42.154856 -120.405240 174 37188ft 446kts
27-Jul-18 15:53 42.033405 -120.369302 174 37187ft 446kts
27-Jul-18 15:54 41.912290 -120.333474 174 37180ft 445kts
27-Jul-18 15:55 41.791205 -120.297746 174 37169ft 445kts
27-Jul-18 15:56 41.670482 -120.262222 174 37160ft 445kts
27-Jul-18 15:57 41.549079 -120.226609 174 37154ft 444kts
27-Jul-18 15:58 41.428404 -120.191345 174 37148ft 444kts
27-Jul-18 15:59 41.307637 -120.156182 174 37146ft 444kts
27-Jul-18 16:00 41.187422 -120.121311 174 37143ft 443kts
27-Jul-18 16:01 41.067064 -120.086947 174 37141ft 441kts
27-Jul-18 16:02 40.947428 -120.046943 172 37138ft 443kts
27-Jul-18 16:03 40.830788 -120.011926 174 36396ft 411kts
27-Jul-18 16:04 40.720376 -119.984455 175 35128ft 404kts
27-Jul-18 16:05 40.609625 -119.955336 174 34133ft 410kts
27-Jul-18 16:06 40.497186 -119.924286 173 32660ft 414kts
27-Jul-18 16:07 40.383585 -119.892530 172 30659ft 420kts
27-Jul-18 16:08 40.268692 -119.860274 171 28514ft 425kts
27-Jul-18 16:09 40.152333 -119.827644 171 26310ft 425kts
27-Jul-18 16:10 40.038842 -119.795895 171 24109ft 410kts
27-Jul-18 16:11 39.928927 -119.765353 171 21904ft 396kts
27-Jul-18 16:12 39.823031 -119.736063 171 20192ft 384kts
27-Jul-18 16:13 39.718064 -119.707066 171 20132ft 386kts
27-Jul-18 16:14 39.618900 -119.679715 171 19625ft 346kts
27-Jul-18 16:15 39.524015 -119.655447 175 17449ft 349kts
27-Jul-18 16:16 39.426764 -119.643160 176 15240ft 348kts
27-Jul-18 16:17 39.335720 -119.631015 176 13284ft 318kts
27-Jul-18 16:18 39.251246 -119.624934 196 11371ft 288kts
27-Jul-18 16:19 39.214680 -119.701872 275 9498ft 265kts
27-Jul-18 16:20 39.262385 -119.766785 326 9155ft 246kts
27-Jul-18 16:21 39.325271 -119.766906 358 8033ft 222kts
27-Jul-18 16:22 39.381227 -119.767880 347 6861ft 178kts
27-Jul-18 16:23 39.420378 -119.767862 338 5927ft 160kts
27-Jul-18 16:24 39.460089 -119.769386 355 4992ft 135kts
27-Jul-18 16:25 39.496307 -119.769306 359 4429ft 88kts
27-Jul-18 16:26 39.503280 -119.770107 324 4429ft 9kts
27-Jul-18 16:27 39.505319 -119.771504 0 4429ft 12kts
27-Jul-18 16:28 39.506577 -119.773296 1 4429ft 0kts
27-Jul-18 16:29 39.506577 -119.773296 1 4429ft 0kts

Navigation Log

Ident Type
Flight plan parsing failed, navigation log unavailable